createdAt,value
2018-07-07T00:00:21.913Z,70.59
2018-07-07T00:02:50.540Z,71.24
2018-07-07T00:05:19.082Z,72.02
2018-07-07T00:07:47.648Z,72.28
2018-07-07T00:10:16.783Z,72.80
2018-07-07T00:12:45.671Z,72.94
2018-07-07T00:15:17.310Z,73.58
2018-07-07T00:17:46.349Z,73.06
2018-07-07T00:20:15.439Z,74.08
2018-07-07T00:22:43.975Z,74.92
2018-07-07T00:25:13.244Z,74.93
2018-07-07T00:27:41.950Z,74.84
2018-07-07T00:30:10.466Z,75.37
2018-07-07T00:32:39.012Z,75.72
2018-07-07T00:35:08.103Z,75.80
2018-07-07T00:37:36.627Z,75.92
2018-07-07T00:40:05.255Z,75.64
2018-07-07T00:42:33.902Z,76.02
2018-07-07T00:45:02.414Z,75.59
2018-07-07T00:47:30.917Z,76.05
2018-07-07T00:49:59.467Z,75.79
2018-07-07T00:52:27.997Z,75.95
2018-07-07T00:54:56.602Z,76.05
2018-07-07T00:57:25.339Z,76.53
2018-07-07T00:59:54.290Z,76.73
2018-07-07T01:02:23.871Z,77.21
2018-07-07T01:04:53.670Z,77.51
2018-07-07T01:07:22.818Z,77.59
2018-07-07T01:09:51.485Z,78.24
2018-07-07T01:12:20.354Z,78.25
2018-07-07T01:14:49.432Z,78.47
2018-07-07T01:17:18.092Z,78.40
2018-07-07T01:19:46.632Z,78.27
2018-07-07T01:22:15.404Z,78.68
2018-07-07T01:24:44.348Z,78.40
2018-07-07T01:27:12.855Z,78.74
2018-07-07T01:29:42.056Z,78.50
2018-07-07T01:32:10.936Z,78.87
2018-07-07T01:34:39.546Z,78.64
2018-07-07T01:37:08.103Z,78.84
2018-07-07T01:39:36.690Z,78.82
2018-07-07T01:42:05.645Z,79.37
2018-07-07T01:44:34.170Z,79.21
2018-07-07T01:47:02.853Z,79.16
2018-07-07T01:49:31.382Z,79.33
2018-07-07T01:51:59.883Z,79.55
2018-07-07T01:54:28.854Z,79.42
2018-07-07T01:56:57.353Z,79.29
2018-07-07T01:59:26.970Z,79.94
2018-07-07T02:01:55.470Z,80.24
2018-07-07T02:04:24.011Z,80.41
2018-07-07T02:06:52.618Z,80.23
2018-07-07T02:09:21.194Z,80.25
2018-07-07T02:11:49.730Z,80.27
2018-07-07T02:14:18.249Z,80.45
2018-07-07T02:16:47.073Z,80.53
2018-07-07T02:19:17.654Z,80.72
2018-07-07T02:21:46.707Z,80.68
2018-07-07T02:24:15.493Z,80.52
2018-07-07T02:26:44.063Z,80.84
2018-07-07T02:29:12.821Z,80.61
2018-07-07T02:31:41.808Z,80.80
2018-07-07T02:34:10.454Z,81.03
2018-07-07T02:36:39.017Z,81.95
2018-07-07T02:39:07.628Z,82.28
2018-07-07T02:41:36.504Z,81.98
2018-07-07T02:44:05.201Z,82.45
2018-07-07T02:46:33.786Z,82.48
2018-07-07T02:49:03.224Z,82.34
2018-07-07T02:51:31.740Z,82.70
2018-07-07T02:54:00.341Z,82.44
2018-07-07T02:56:28.823Z,82.96
2018-07-07T02:58:57.373Z,83.07
2018-07-07T03:01:25.913Z,82.95
2018-07-07T03:03:54.433Z,83.06
2018-07-07T03:06:23.174Z,82.95
2018-07-07T03:08:51.770Z,82.92
2018-07-07T03:11:20.506Z,82.93
2018-07-07T03:13:49.146Z,82.89
2018-07-07T03:16:17.646Z,83.15
2018-07-07T03:18:46.125Z,83.67
2018-07-07T03:21:14.740Z,83.32
2018-07-07T03:23:43.210Z,83.66
2018-07-07T03:26:11.743Z,83.51
2018-07-07T03:28:40.529Z,83.56
2018-07-07T03:31:09.047Z,83.65
2018-07-07T03:33:37.567Z,83.34
2018-07-07T03:36:06.263Z,83.23
2018-07-07T03:38:34.753Z,83.80
2018-07-07T03:41:03.299Z,84.11
2018-07-07T03:43:31.845Z,83.90
2018-07-07T03:46:00.340Z,84.07
2018-07-07T03:48:29.355Z,83.95
2018-07-07T03:50:57.823Z,84.00
2018-07-07T03:53:26.386Z,83.63
2018-07-07T03:55:54.951Z,83.45
2018-07-07T03:58:23.459Z,83.23
2018-07-07T04:00:53.271Z,83.23
2018-07-07T04:03:21.825Z,82.95
2018-07-07T04:05:50.730Z,82.82
2018-07-07T04:08:19.274Z,82.37
2018-07-07T04:10:47.881Z,82.35
2018-07-07T04:13:16.410Z,82.42
2018-07-07T04:15:44.927Z,82.31
2018-07-07T04:18:13.467Z,81.81
2018-07-07T04:20:41.995Z,81.05
2018-07-07T04:23:10.539Z,80.53
2018-07-07T04:25:39.037Z,79.35
2018-07-07T04:28:07.562Z,78.78
2018-07-07T04:30:36.101Z,77.81
2018-07-07T04:33:05.027Z,77.19
2018-07-07T04:35:33.574Z,76.98
2018-07-07T04:38:02.081Z,76.73
2018-07-07T04:40:30.813Z,76.82
2018-07-07T04:42:59.723Z,76.50
2018-07-07T04:45:28.226Z,76.08
2018-07-07T04:47:56.767Z,75.86
2018-07-07T04:50:25.381Z,75.31
2018-07-07T04:52:53.874Z,75.42
2018-07-07T04:55:22.678Z,75.54
2018-07-07T04:57:51.269Z,76.56
2018-07-07T05:00:19.798Z,75.12
2018-07-07T05:02:48.640Z,74.84
2018-07-07T05:05:17.412Z,73.73
2018-07-07T05:07:46.153Z,72.52
2018-07-07T05:10:15.456Z,67.88
2018-07-07T05:12:44.057Z,64.19
2018-07-07T05:15:12.882Z,61.34
2018-07-07T05:17:41.371Z,61.13
2018-07-07T05:20:09.854Z,62.66
2018-07-07T05:22:38.709Z,66.38
2018-07-07T05:25:07.186Z,69.10
2018-07-07T05:27:35.696Z,70.24
2018-07-07T05:30:04.661Z,70.25
2018-07-07T05:32:33.169Z,69.85
2018-07-07T05:35:01.702Z,69.87
2018-07-07T05:37:30.240Z,67.54
2018-07-07T05:39:58.763Z,66.38
2018-07-07T05:42:27.289Z,65.75
2018-07-07T05:44:55.850Z,63.75
2018-07-07T05:47:24.370Z,63.28
2018-07-07T05:49:52.912Z,61.01
2018-07-07T05:52:21.430Z,60.19
2018-07-07T05:54:49.919Z,56.88
2018-07-07T05:57:18.494Z,56.65
2018-07-07T05:59:47.101Z,58.78
2018-07-07T06:02:15.621Z,53.09
2018-07-07T06:04:44.125Z,54.31
2018-07-07T06:07:12.617Z,54.45
2018-07-07T06:09:41.157Z,53.51
2018-07-07T06:12:09.937Z,54.34
2018-07-07T06:14:38.561Z,53.93
2018-07-07T06:17:07.069Z,56.00
2018-07-07T06:19:35.605Z,55.32
2018-07-07T06:22:04.162Z,58.31
2018-07-07T06:24:32.649Z,56.08
2018-07-07T06:27:01.133Z,56.73
2018-07-07T06:29:29.800Z,57.94
2018-07-07T06:31:58.292Z,58.28
2018-07-07T06:34:26.817Z,57.40
2018-07-07T06:36:55.629Z,56.41
2018-07-07T06:39:24.295Z,55.52
2018-07-07T06:41:52.887Z,56.25
2018-07-07T06:44:21.369Z,55.83
2018-07-07T06:46:49.853Z,54.29
2018-07-07T06:49:18.389Z,52.21
2018-07-07T06:51:46.871Z,52.86
2018-07-07T06:54:15.495Z,52.65
2018-07-07T06:56:44.024Z,56.35
2018-07-07T06:59:12.535Z,54.90
2018-07-07T07:01:41.474Z,55.61
2018-07-07T07:04:09.966Z,47.32
2018-07-07T07:06:38.446Z,50.40
2018-07-07T07:09:08.997Z,54.35
2018-07-07T07:11:37.527Z,46.35
2018-07-07T07:14:06.240Z,46.35
2018-07-07T07:16:34.743Z,46.84
2018-07-07T07:19:03.533Z,46.21
2018-07-07T07:21:33.085Z,46.74
2018-07-07T07:24:01.764Z,50.02
2018-07-07T07:26:30.315Z,53.93
2018-07-07T07:28:58.861Z,55.16
2018-07-07T07:31:27.360Z,52.46
2018-07-07T07:33:55.844Z,51.49
2018-07-07T07:36:38.991Z,53.79
2018-07-07T07:39:07.552Z,55.31
2018-07-07T07:41:36.066Z,57.80
2018-07-07T07:44:04.543Z,54.87
2018-07-07T07:46:33.587Z,54.89
2018-07-07T07:49:02.100Z,54.95
2018-07-07T07:51:30.626Z,55.19
2018-07-07T07:53:59.189Z,55.85
2018-07-07T07:56:28.629Z,56.06
2018-07-07T07:58:58.062Z,55.78
2018-07-07T08:01:26.864Z,55.96
2018-07-07T08:03:56.034Z,54.76
2018-07-07T08:06:24.588Z,53.59
2018-07-07T08:08:53.161Z,53.59
2018-07-07T08:11:21.751Z,55.29
2018-07-07T08:13:51.416Z,53.17
2018-07-07T08:16:19.877Z,54.68
2018-07-07T08:18:48.883Z,53.70
2018-07-07T08:21:17.374Z,56.58
2018-07-07T08:23:45.969Z,53.29
2018-07-07T08:26:14.477Z,53.78
2018-07-07T08:28:43.469Z,52.68
2018-07-07T08:31:11.946Z,54.35
2018-07-07T08:33:40.411Z,54.62
2018-07-07T08:36:08.961Z,52.81
2018-07-07T08:38:37.416Z,53.86
2018-07-07T08:41:06.139Z,51.55
2018-07-07T08:43:34.672Z,50.31
2018-07-07T08:46:03.163Z,49.75
2018-07-07T08:48:31.651Z,51.23
2018-07-07T08:51:00.209Z,49.29
2018-07-07T08:53:28.696Z,46.15
2018-07-07T08:55:57.444Z,46.05
2018-07-07T08:58:26.050Z,44.22
2018-07-07T09:00:54.644Z,44.81
2018-07-07T09:03:23.427Z,47.76
2018-07-07T09:05:51.904Z,47.04
2018-07-07T09:08:20.387Z,47.97
2018-07-07T09:10:48.996Z,47.85
2018-07-07T09:13:17.873Z,46.62
2018-07-07T09:15:46.325Z,46.35
2018-07-07T09:18:14.812Z,45.98
2018-07-07T09:20:43.344Z,46.99
2018-07-07T09:23:12.165Z,45.81
2018-07-07T09:25:40.684Z,47.53
2018-07-07T09:28:09.165Z,46.68
2018-07-07T09:30:38.110Z,46.06
2018-07-07T09:33:06.649Z,45.90
2018-07-07T09:35:35.129Z,45.76
2018-07-07T09:38:03.657Z,45.73
2018-07-07T09:40:32.131Z,45.68
2018-07-07T09:43:00.809Z,46.18
2018-07-07T09:45:29.340Z,46.28
2018-07-07T09:47:57.824Z,45.93
2018-07-07T09:50:26.782Z,46.21
2018-07-07T09:52:55.329Z,48.92
2018-07-07T09:55:23.853Z,48.17
2018-07-07T09:57:52.402Z,47.37
2018-07-07T10:00:26.160Z,47.64
2018-07-07T10:02:54.886Z,47.66
2018-07-07T10:05:23.471Z,47.51
2018-07-07T10:07:51.925Z,47.94
2018-07-07T10:10:20.593Z,49.24
2018-07-07T10:12:49.072Z,49.25
2018-07-07T10:15:17.546Z,47.75
2018-07-07T10:17:46.105Z,49.41
2018-07-07T10:20:14.598Z,48.39
2018-07-07T10:22:43.357Z,48.05
2018-07-07T10:25:11.856Z,47.04
2018-07-07T10:27:40.356Z,48.05
2018-07-07T10:30:09.425Z,46.77
2018-07-07T10:32:37.890Z,45.18
2018-07-07T10:35:06.474Z,46.76
2018-07-07T10:37:34.964Z,47.72
2018-07-07T10:40:03.952Z,46.44
2018-07-07T10:42:32.441Z,46.75
2018-07-07T10:45:00.996Z,46.90
2018-07-07T10:47:30.016Z,46.71
2018-07-07T10:49:58.464Z,46.95
2018-07-07T10:52:27.028Z,46.92
2018-07-07T10:54:55.592Z,46.79
2018-07-07T10:57:24.146Z,46.19
2018-07-07T10:59:52.828Z,45.48
2018-07-07T11:02:21.349Z,46.51
2018-07-07T11:04:49.825Z,46.58
2018-07-07T11:07:18.394Z,45.92
2018-07-07T11:09:46.864Z,46.03
2018-07-07T11:12:15.484Z,45.04
2018-07-07T11:14:43.953Z,46.19
2018-07-07T11:17:12.440Z,45.79
2018-07-07T11:19:40.951Z,46.07
2018-07-07T11:22:10.027Z,47.16
2018-07-07T11:24:38.517Z,47.47
2018-07-07T11:27:06.989Z,45.71
2018-07-07T11:29:35.488Z,44.35
2018-07-07T11:32:04.076Z,44.74
2018-07-07T11:34:32.618Z,45.63
2018-07-07T11:37:01.177Z,45.37
2018-07-07T11:39:29.853Z,44.96
2018-07-07T11:41:58.404Z,45.03
2018-07-07T11:44:27.036Z,44.11
2018-07-07T11:46:55.641Z,45.82
2018-07-07T11:49:24.195Z,46.24
2018-07-07T11:51:53.181Z,44.23
2018-07-07T11:54:21.702Z,44.70
2018-07-07T11:56:50.175Z,44.95
2018-07-07T11:59:18.714Z,44.03
2018-07-07T12:01:47.205Z,43.87
2018-07-07T12:04:15.744Z,43.66
2018-07-07T12:06:44.216Z,44.66
2018-07-07T12:09:12.865Z,43.06
2018-07-07T12:11:41.614Z,43.18
2018-07-07T12:14:10.039Z,43.46
2018-07-07T12:16:38.504Z,43.28
2018-07-07T12:19:07.013Z,42.95
2018-07-07T12:21:35.514Z,43.43
2018-07-07T12:24:04.061Z,43.67
2018-07-07T12:26:32.563Z,44.33
2018-07-07T12:29:01.118Z,43.61
2018-07-07T12:31:29.753Z,43.65
2018-07-07T12:33:58.219Z,43.84
2018-07-07T12:36:26.980Z,43.86
2018-07-07T12:38:55.550Z,42.98
2018-07-07T12:41:24.314Z,42.90
2018-07-07T12:43:52.793Z,42.34
2018-07-07T12:46:21.310Z,42.33
2018-07-07T12:48:49.835Z,43.42
2018-07-07T12:51:18.350Z,43.38
2018-07-07T12:53:46.886Z,43.20
2018-07-07T12:56:15.361Z,42.76
2018-07-07T12:58:43.854Z,43.36
2018-07-07T13:01:12.464Z,43.75
2018-07-07T13:03:40.906Z,43.36
2018-07-07T13:06:09.390Z,43.02
2018-07-07T13:08:37.857Z,41.47
2018-07-07T13:11:06.793Z,42.39
2018-07-07T13:13:35.282Z,42.84
2018-07-07T13:16:03.809Z,41.13
2018-07-07T13:18:32.394Z,42.28
2018-07-07T13:21:00.970Z,40.96
2018-07-07T13:23:29.684Z,42.39
2018-07-07T13:25:58.237Z,41.20
2018-07-07T13:28:26.932Z,41.87
2018-07-07T13:30:55.520Z,42.17
2018-07-07T13:33:24.222Z,43.16
2018-07-07T13:35:52.693Z,41.92
2018-07-07T13:38:21.162Z,42.53
2018-07-07T13:40:49.658Z,41.83
2018-07-07T13:43:18.257Z,44.37
2018-07-07T13:45:46.826Z,43.95
2018-07-07T13:48:15.813Z,42.39
2018-07-07T13:50:44.328Z,43.00
2018-07-07T13:53:12.803Z,43.24
2018-07-07T13:55:41.714Z,42.88
2018-07-07T13:58:10.194Z,41.84
2018-07-07T14:00:38.670Z,43.03
2018-07-07T14:03:07.602Z,41.72
2018-07-07T14:05:36.086Z,42.76
2018-07-07T14:08:04.590Z,43.17
2018-07-07T14:10:33.233Z,42.56
2018-07-07T14:13:01.726Z,42.80
2018-07-07T14:15:30.308Z,41.58
2018-07-07T14:17:59.101Z,41.27
2018-07-07T14:20:27.621Z,41.41
2018-07-07T14:22:56.241Z,41.44
2018-07-07T14:25:24.796Z,40.94
2018-07-07T14:27:53.321Z,42.15
2018-07-07T14:30:21.840Z,41.88
2018-07-07T14:32:50.547Z,40.57
2018-07-07T14:35:19.062Z,41.45
2018-07-07T14:37:47.634Z,40.92
2018-07-07T14:40:16.172Z,40.86
2018-07-07T14:42:59.430Z,41.53
2018-07-07T14:45:29.997Z,41.34
2018-07-07T14:48:03.258Z,42.12
2018-07-07T14:50:31.769Z,41.87
2018-07-07T14:53:00.356Z,41.81
2018-07-07T14:55:29.705Z,42.55
2018-07-07T14:57:58.601Z,42.91
2018-07-07T15:00:28.589Z,42.57
2018-07-07T15:02:57.929Z,42.53
2018-07-07T15:05:26.428Z,43.09
2018-07-07T15:07:55.181Z,43.16
2018-07-07T15:10:23.856Z,42.53
2018-07-07T15:12:52.421Z,42.92
2018-07-07T15:15:20.913Z,43.73
2018-07-07T15:17:49.440Z,43.56
2018-07-07T15:20:17.931Z,42.86
2018-07-07T15:22:46.543Z,43.00
2018-07-07T15:25:14.974Z,42.47
2018-07-07T15:27:43.486Z,43.22
2018-07-07T15:30:12.009Z,43.91
2018-07-07T15:32:40.501Z,42.48
2018-07-07T15:35:09.016Z,43.04
2018-07-07T15:37:37.529Z,43.12
2018-07-07T15:40:06.395Z,42.67
2018-07-07T15:42:34.909Z,43.39
2018-07-07T15:45:03.753Z,43.53
2018-07-07T15:47:32.273Z,43.91
2018-07-07T15:50:00.816Z,43.61
2018-07-07T15:52:29.389Z,43.39
2018-07-07T15:54:57.885Z,43.11
2018-07-07T15:57:26.850Z,43.56
2018-07-07T15:59:55.622Z,43.48
2018-07-07T16:02:24.117Z,43.95
2018-07-07T16:04:52.593Z,43.42
2018-07-07T16:07:21.215Z,44.26
2018-07-07T16:09:49.780Z,44.19
2018-07-07T16:12:18.243Z,43.78
2018-07-07T16:14:47.124Z,43.50
2018-07-07T16:17:15.612Z,43.28
2018-07-07T16:19:44.120Z,43.36
2018-07-07T16:22:12.769Z,43.28
2018-07-07T16:24:41.265Z,42.87
2018-07-07T16:27:09.761Z,43.59
2018-07-07T16:29:38.387Z,42.79
2018-07-07T16:32:07.121Z,42.83
2018-07-07T16:34:35.655Z,43.10
2018-07-07T16:37:04.190Z,42.76
2018-07-07T16:39:32.721Z,43.08
2018-07-07T16:42:01.637Z,43.35
2018-07-07T16:44:30.305Z,43.58
2018-07-07T16:46:58.961Z,44.14
2018-07-07T16:49:27.656Z,43.78
2018-07-07T16:51:56.219Z,44.00
2018-07-07T16:54:24.735Z,43.95
2018-07-07T16:56:53.702Z,44.18
2018-07-07T16:59:22.189Z,43.64
2018-07-07T17:01:51.898Z,44.25
2018-07-07T17:04:20.921Z,44.68
2018-07-07T17:06:49.783Z,44.62
2018-07-07T17:09:18.929Z,44.27
2018-07-07T17:11:47.733Z,44.30
2018-07-07T17:14:16.180Z,44.16
2018-07-07T17:16:45.857Z,44.40
2018-07-07T17:19:15.932Z,44.84
2018-07-07T17:21:45.706Z,45.95
2018-07-07T17:24:14.794Z,45.09
2018-07-07T17:26:43.558Z,44.82
2018-07-07T17:29:12.082Z,45.25
2018-07-07T17:31:40.589Z,45.87
2018-07-07T17:34:09.107Z,46.53
2018-07-07T17:36:37.913Z,46.98
2018-07-07T17:39:06.389Z,46.54
2018-07-07T17:41:36.032Z,46.51
2018-07-07T17:44:04.505Z,47.16
2018-07-07T17:46:33.026Z,46.21
2018-07-07T17:49:01.604Z,46.34
2018-07-07T17:51:30.693Z,47.33
2018-07-07T17:54:00.770Z,46.59
2018-07-07T17:56:29.532Z,45.94
2018-07-07T17:58:58.277Z,45.28
2018-07-07T18:01:26.843Z,44.57
2018-07-07T18:03:55.553Z,44.31
2018-07-07T18:06:24.109Z,44.50
2018-07-07T18:08:52.573Z,44.03
2018-07-07T18:11:21.606Z,44.48
2018-07-07T18:13:50.189Z,43.33
2018-07-07T18:16:18.709Z,42.61
2018-07-07T18:18:47.349Z,42.59
2018-07-07T18:21:15.837Z,41.04
2018-07-07T18:23:44.355Z,40.30
2018-07-07T18:26:12.881Z,42.34
2018-07-07T18:28:41.477Z,43.86
2018-07-07T18:31:09.996Z,44.93
2018-07-07T18:33:38.498Z,45.87
2018-07-07T18:36:07.262Z,45.99
2018-07-07T18:38:35.756Z,46.54
2018-07-07T18:41:04.212Z,46.56
2018-07-07T18:43:33.022Z,47.26
2018-07-07T18:46:01.524Z,47.58
2018-07-07T18:48:29.985Z,48.28
2018-07-07T18:50:58.643Z,48.27
2018-07-07T18:53:27.148Z,48.67
2018-07-07T18:55:55.792Z,49.26
2018-07-07T18:58:24.277Z,48.94
2018-07-07T19:00:52.821Z,49.42
2018-07-07T19:03:21.586Z,49.18
2018-07-07T19:05:50.074Z,49.37
2018-07-07T19:08:18.746Z,49.82
2018-07-07T19:10:47.251Z,48.55
2018-07-07T19:13:16.205Z,48.88
2018-07-07T19:15:46.469Z,49.33
2018-07-07T19:18:16.361Z,49.72
2018-07-07T19:20:50.237Z,50.01
2018-07-07T19:23:24.077Z,50.00
2018-07-07T19:25:57.864Z,50.50
2018-07-07T19:28:26.394Z,49.96
2018-07-07T19:30:55.007Z,49.70
2018-07-07T19:33:28.703Z,49.13
2018-07-07T19:36:02.735Z,50.44
2018-07-07T19:38:31.227Z,51.55
2018-07-07T19:40:59.843Z,52.63
2018-07-07T19:43:28.392Z,53.44
2018-07-07T19:45:57.114Z,53.90
2018-07-07T19:48:25.617Z,54.09
2018-07-07T19:50:54.314Z,54.70
2018-07-07T19:53:22.794Z,55.47
2018-07-07T19:55:51.278Z,55.71
2018-07-07T19:58:19.886Z,55.95
2018-07-07T20:00:48.461Z,55.92
2018-07-07T20:03:17.134Z,56.43
2018-07-07T20:05:45.632Z,56.96
2018-07-07T20:08:14.214Z,57.63
2018-07-07T20:10:43.231Z,58.08
2018-07-07T20:13:11.807Z,58.05
2018-07-07T20:15:51.552Z,58.64
2018-07-07T20:18:20.065Z,58.99
2018-07-07T20:21:03.884Z,58.94
2018-07-07T20:23:32.353Z,59.49
2018-07-07T20:26:05.032Z,59.46
2018-07-07T20:28:38.798Z,59.74
2018-07-07T20:31:07.294Z,60.25
2018-07-07T20:33:35.858Z,60.45
2018-07-07T20:36:04.313Z,61.27
2018-07-07T20:38:32.824Z,61.27
2018-07-07T20:41:01.314Z,62.21
2018-07-07T20:43:29.924Z,62.66
2018-07-07T20:45:58.404Z,62.83
2018-07-07T20:48:26.863Z,63.24
2018-07-07T20:50:55.382Z,63.58
2018-07-07T20:53:23.873Z,63.89
2018-07-07T20:55:52.462Z,64.19
2018-07-07T20:58:20.960Z,64.60
2018-07-07T21:00:49.453Z,64.73
2018-07-07T21:03:18.001Z,65.22
2018-07-07T21:05:46.673Z,65.78
2018-07-07T21:08:15.187Z,65.92
2018-07-07T21:10:43.970Z,65.90
2018-07-07T21:13:13.289Z,66.65
2018-07-07T21:15:41.878Z,66.75
2018-07-07T21:18:10.378Z,67.08
2018-07-07T21:20:38.859Z,67.20
2018-07-07T21:23:07.360Z,67.87
2018-07-07T21:25:35.858Z,67.90
2018-07-07T21:28:04.363Z,67.92
2018-07-07T21:30:32.894Z,68.27
2018-07-07T21:33:01.352Z,68.54
2018-07-07T21:35:30.245Z,68.97
2018-07-07T21:37:59.259Z,69.46
2018-07-07T21:40:27.725Z,69.51
2018-07-07T21:42:56.266Z,69.74
2018-07-07T21:45:25.133Z,69.81
2018-07-07T21:47:53.588Z,70.02
2018-07-07T21:50:22.153Z,69.96
2018-07-07T21:52:50.653Z,70.24
2018-07-07T21:55:19.192Z,70.46
2018-07-07T21:57:52.853Z,71.00
2018-07-07T22:00:26.653Z,71.88
2018-07-07T22:03:00.456Z,72.17
2018-07-07T22:05:32.485Z,72.23
2018-07-07T22:08:05.434Z,72.75
2018-07-07T22:10:34.137Z,73.14
2018-07-07T22:13:02.625Z,73.66
2018-07-07T22:15:31.126Z,74.27
2018-07-07T22:17:59.618Z,73.96
2018-07-07T22:20:34.803Z,74.06
2018-07-07T22:23:03.479Z,75.19
2018-07-07T22:25:32.006Z,76.00
2018-07-07T22:28:00.777Z,76.09
2018-07-07T22:30:29.253Z,76.25
2018-07-07T22:33:03.309Z,76.23
2018-07-07T22:35:37.226Z,75.41
2018-07-07T22:38:09.842Z,76.17
2018-07-07T22:40:38.370Z,76.47
2018-07-07T22:43:06.990Z,76.93
2018-07-07T22:45:35.934Z,77.09
2018-07-07T22:48:04.393Z,77.44
2018-07-07T22:50:32.865Z,77.58
2018-07-07T22:53:01.522Z,77.62
2018-07-07T22:55:30.028Z,77.97
2018-07-07T22:57:58.530Z,78.71
2018-07-07T23:00:32.405Z,78.55
2018-07-07T23:03:01.417Z,78.24
2018-07-07T23:05:29.982Z,78.13
2018-07-07T23:07:58.572Z,78.24
2018-07-07T23:10:27.078Z,78.81
2018-07-07T23:12:55.661Z,78.63
2018-07-07T23:15:24.249Z,79.43
2018-07-07T23:17:52.750Z,79.49
2018-07-07T23:20:21.254Z,79.27
2018-07-07T23:22:55.273Z,80.25
2018-07-07T23:25:23.893Z,80.42
2018-07-07T23:27:52.781Z,79.99
2018-07-07T23:30:21.761Z,79.98
2018-07-07T23:32:50.917Z,80.42
2018-07-07T23:35:19.727Z,80.59
2018-07-07T23:37:48.255Z,79.77
2018-07-07T23:40:16.781Z,80.66
2018-07-07T23:42:45.399Z,80.78
2018-07-07T23:45:13.925Z,81.09
2018-07-07T23:47:42.917Z,81.55
2018-07-07T23:50:11.507Z,81.77
2018-07-07T23:52:39.993Z,82.06
2018-07-07T23:55:08.686Z,82.29
2018-07-07T23:57:37.152Z,82.25
